Time;durP1;ratioP1;P1;durP2;ratioP2;P2;SDS_P1;SDS_P2;PMS_P1;PMS_P2;Temp;Humidity;BMP_temperature;BMP_pressure;BME280_temperature;BME280_humidity;BME280_pressure;Samples;Min_cycle;Max_cycle;Signal;HPM_P1;HPM_P2
2023/01/25 00:01:43;;;;;;;9.68;8.35;;;16.20;59.60;;;;;;5067567;28;20033;-27
2023/01/25 00:04:09;;;;;;;9.02;8.13;;;16.20;59.70;;;;;;5066980;28;20178;-25
2023/01/25 00:06:35;;;;;;;7.82;7.13;;;16.10;59.70;;;;;;5066948;28;20032;-23
2023/01/25 00:09:00;;;;;;;8.30;7.50;;;16.10;59.80;;;;;;5062506;28;20098;-24
2023/01/25 00:11:26;;;;;;;9.75;8.82;;;16.10;59.90;;;;;;5067515;28;20055;-31
2023/01/25 00:13:55;;;;;;;10.07;7.95;;;16.10;59.80;;;;;;5068831;28;20044;-15
2023/01/25 00:16:20;;;;;;;8.57;7.78;;;16.10;59.80;;;;;;5067175;28;20094;-12
2023/01/25 00:18:47;;;;;;;8.10;7.30;;;16.10;59.90;;;;;;5066564;28;20052;-17
2023/01/25 00:21:16;;;;;;;7.97;7.25;;;16.10;59.70;;;;;;5066682;28;20044;-18
2023/01/25 00:23:42;;;;;;;8.30;7.15;;;16.10;59.90;;;;;;5064126;28;20037;-24
2023/01/25 00:26:08;;;;;;;7.18;6.57;;;16.10;60.00;;;;;;5066312;28;20044;-23
2023/01/25 00:28:33;;;;;;;6.88;6.35;;;16.10;59.80;;;;;;5067066;28;20498;-12
2023/01/25 00:31:02;;;;;;;8.25;7.45;;;16.20;59.70;;;;;;5063671;28;20043;-17
2023/01/25 00:33:37;;;;;;;7.55;6.95;;;16.10;59.70;;;;;;5065983;28;20435;-14
2023/01/25 00:36:38;;;;;;;7.63;6.93;;;16.10;59.80;;;;;;5061469;28;20039;-16
2023/01/25 00:39:10;;;;;;;7.63;7.00;;;16.10;59.70;;;;;;5066114;28;20518;-17
2023/01/25 00:41:36;;;;;;;8.60;7.80;;;16.10;59.70;;;;;;5062877;28;20118;-12
2023/01/25 00:44:01;;;;;;;7.05;6.45;;;16.10;59.80;;;;;;5065113;28;20115;-37
2023/01/25 00:46:27;;;;;;;7.45;6.72;;;16.10;59.80;;;;;;5066070;28;21177;-26
2023/01/25 00:48:53;;;;;;;7.43;6.78;;;16.10;59.80;;;;;;5069441;28;20040;-12
2023/01/25 00:51:19;;;;;;;7.32;6.70;;;16.20;59.60;;;;;;5065455;28;20083;-25
2023/01/25 00:53:45;;;;;;;7.30;6.60;;;16.10;59.70;;;;;;5066833;28;20466;-20
2023/01/25 00:56:10;;;;;;;7.07;6.38;;;16.20;59.60;;;;;;5065107;28;20056;-13
2023/01/25 00:58:36;;;;;;;6.70;6.18;;;16.20;59.60;;;;;;5067144;28;20040;-13
2023/01/25 01:01:01;;;;;;;6.20;5.78;;;16.20;59.60;;;;;;5066273;28;20089;-12
2023/01/25 01:03:27;;;;;;;6.55;5.95;;;16.20;59.60;;;;;;5067237;28;20040;-22
2023/01/25 01:06:03;;;;;;;6.75;6.25;;;16.20;59.50;;;;;;5065049;28;20569;-12
2023/01/25 01:08:29;;;;;;;6.43;6.00;;;16.10;59.60;;;;;;5067125;28;20044;-29
2023/01/25 01:11:01;;;;;;;6.47;5.88;;;16.10;59.60;;;;;;5063984;28;20062;-27
2023/01/25 01:13:27;;;;;;;5.68;5.28;;;16.10;59.70;;;;;;5048426;28;20127;-31
2023/01/25 01:15:53;;;;;;;5.90;5.47;;;16.10;59.70;;;;;;5050094;28;20625;-21
2023/01/25 01:18:18;;;;;;;6.38;5.88;;;16.10;59.80;;;;;;5053789;28;20112;-22
2023/01/25 01:20:48;;;;;;;6.18;5.68;;;16.10;59.80;;;;;;5044148;28;20080;-17
2023/01/25 01:23:14;;;;;;;6.72;6.07;;;16.10;59.70;;;;;;5060997;28;20048;-15
2023/01/25 01:25:39;;;;;;;6.30;5.80;;;16.00;59.70;;;;;;5063240;28;20105;-19
2023/01/25 01:28:05;;;;;;;6.43;5.82;;;16.10;59.70;;;;;;5055220;28;20416;-21
2023/01/25 01:30:31;;;;;;;5.72;5.32;;;16.10;59.70;;;;;;5045484;28;20056;-22
2023/01/25 01:32:56;;;;;;;5.65;5.25;;;16.10;59.60;;;;;;5046045;28;20040;-12
2023/01/25 01:35:22;;;;;;;5.88;5.40;;;16.10;59.60;;;;;;5052210;28;20056;-35
2023/01/25 01:37:47;;;;;;;5.90;5.30;;;16.10;59.70;;;;;;5054909;28;20037;-17
2023/01/25 01:40:14;;;;;;;5.22;4.82;;;16.10;59.60;;;;;;5059070;28;20044;-16
2023/01/25 01:42:59;;;;;;;5.75;5.35;;;16.10;59.60;;;;;;5050164;28;20041;-19
2023/01/25 01:46:01;;;;;;;5.05;4.65;;;16.00;59.60;;;;;;5062122;28;20484;-32
2023/01/25 01:48:39;;;;;;;5.40;5.00;;;16.00;59.70;;;;;;5039111;28;20051;-21
2023/01/25 01:51:22;;;;;;;5.55;5.25;;;16.00;59.60;;;;;;5042840;28;20049;-16
2023/01/25 01:54:06;;;;;;;5.28;4.88;;;16.10;59.60;;;;;;5041825;28;20110;-32
2023/01/25 01:56:39;;;;;;;5.47;5.00;;;16.00;59.60;;;;;;5028044;28;20637;-26
2023/01/25 01:59:05;;;;;;;5.22;4.82;;;15.90;59.80;;;;;;5012564;28;20034;-41
2023/01/25 02:01:30;;;;;;;5.50;5.10;;;15.90;59.90;;;;;;5009668;28;20040;-35
2023/01/25 02:03:56;;;;;;;4.90;4.55;;;15.90;59.80;;;;;;5026151;28;20408;-22
2023/01/25 02:06:30;;;;;;;5.18;4.78;;;15.90;59.80;;;;;;5039970;28;20053;-32
2023/01/25 02:08:56;;;;;;;5.50;5.10;;;16.00;59.90;;;;;;5041279;28;20064;-18
2023/01/25 02:11:21;;;;;;;5.30;4.90;;;15.90;59.70;;;;;;5040962;28;20065;-30
2023/01/25 02:13:48;;;;;;;4.90;4.60;;;15.90;59.80;;;;;;5007240;28;20075;-27
2023/01/25 02:16:15;;;;;;;4.57;4.28;;;15.90;59.80;;;;;;5039990;28;20033;-18
2023/01/25 02:18:41;;;;;;;5.38;4.97;;;15.90;59.70;;;;;;5008766;28;20463;-25
2023/01/25 02:21:07;;;;;;;4.80;4.50;;;15.90;59.80;;;;;;5015736;28;20045;-18
2023/01/25 02:23:35;;;;;;;4.95;4.65;;;15.90;59.90;;;;;;5061321;28;20075;-28
2023/01/25 02:26:03;;;;;;;5.47;5.07;;;15.80;59.80;;;;;;5064115;28;20116;-22
2023/01/25 02:28:49;;;;;;;4.78;4.47;;;15.90;59.70;;;;;;5050441;28;20495;-18
2023/01/25 02:31:15;;;;;;;5.22;4.82;;;15.80;59.80;;;;;;5069306;28;20495;-20
2023/01/25 02:33:41;;;;;;;5.15;4.75;;;15.90;59.70;;;;;;5040293;28;20057;-18
2023/01/25 02:36:06;;;;;;;5.10;4.70;;;15.90;59.70;;;;;;5042603;28;20045;-16
2023/01/25 02:38:44;;;;;;;5.03;4.65;;;15.80;59.70;;;;;;5054049;28;20032;-18
2023/01/25 02:41:34;;;;;;;4.88;4.53;;;15.80;59.70;;;;;;5046941;28;22242;-24
2023/01/25 02:44:01;;;;;;;5.07;4.78;;;15.80;59.50;;;;;;5040595;28;20039;-36
2023/01/25 02:46:34;;;;;;;5.15;4.75;;;15.80;59.60;;;;;;5022486;28;20049;-22
2023/01/25 02:49:00;;;;;;;4.88;4.57;;;15.90;59.60;;;;;;5059125;28;20044;-26
2023/01/25 02:51:28;;;;;;;5.30;4.95;;;15.80;60.20;;;;;;5045030;28;20060;-20
2023/01/25 02:53:54;;;;;;;5.40;5.00;;;15.90;59.60;;;;;;5044538;28;20049;-18
2023/01/25 02:56:19;;;;;;;5.10;4.75;;;15.90;59.50;;;;;;5041198;28;20037;-21
2023/01/25 02:58:45;;;;;;;5.15;4.85;;;15.80;59.40;;;;;;5043997;28;20064;-35
2023/01/25 03:01:11;;;;;;;5.20;4.88;;;15.80;59.60;;;;;;5041247;28;20041;-35
2023/01/25 03:03:36;;;;;;;4.97;4.68;;;15.80;59.60;;;;;;5054073;28;20057;-41
2023/01/25 03:06:02;;;;;;;5.80;5.30;;;15.80;59.70;;;;;;5041180;28;20069;-35
2023/01/25 03:08:28;;;;;;;5.50;5.10;;;15.90;59.40;;;;;;5047085;28;20491;-34
2023/01/25 03:10:57;;;;;;;5.20;4.90;;;15.80;60.10;;;;;;5046690;28;20040;-47
2023/01/25 03:13:23;;;;;;;5.10;4.80;;;15.80;59.50;;;;;;5044006;28;20037;-31
2023/01/25 03:15:48;;;;;;;4.97;4.68;;;15.80;59.40;;;;;;5044812;28;20120;-40
2023/01/25 03:18:14;;;;;;;4.70;4.40;;;15.70;59.50;;;;;;5044684;28;20040;-30
2023/01/25 03:20:40;;;;;;;5.25;4.95;;;15.70;59.70;;;;;;5048458;28;20045;-30
2023/01/25 03:23:05;;;;;;;4.45;4.15;;;15.80;59.50;;;;;;5064632;28;20044;-20
2023/01/25 03:25:31;;;;;;;5.20;4.80;;;15.80;59.30;;;;;;5042991;28;20140;-32
2023/01/25 03:27:56;;;;;;;5.10;4.75;;;15.80;59.30;;;;;;5062747;28;20078;-25
2023/01/25 03:30:22;;;;;;;4.68;4.38;;;15.80;59.30;;;;;;5065371;28;20048;-25
2023/01/25 03:32:47;;;;;;;4.20;4.00;;;15.70;59.50;;;;;;5057239;28;20040;-24
2023/01/25 03:35:13;;;;;;;4.93;4.63;;;15.70;59.50;;;;;;5058638;28;20036;-22
2023/01/25 03:37:39;;;;;;;4.82;4.53;;;15.70;59.50;;;;;;5069979;28;20037;-36
2023/01/25 03:40:05;;;;;;;5.00;4.70;;;15.70;59.50;;;;;;5048972;28;20045;-18
2023/01/25 03:42:30;;;;;;;4.57;4.28;;;15.70;59.60;;;;;;5046489;28;20045;-35
2023/01/25 03:44:56;;;;;;;4.50;4.20;;;15.70;59.50;;;;;;5061180;28;20081;-35
2023/01/25 03:47:22;;;;;;;4.60;4.32;;;15.70;59.30;;;;;;5065423;28;20503;-25
2023/01/25 03:49:47;;;;;;;4.85;4.55;;;15.70;59.30;;;;;;5060087;28;20037;-31
2023/01/25 03:52:13;;;;;;;4.68;4.35;;;15.70;59.40;;;;;;5043815;28;20132;-29
2023/01/25 03:54:38;;;;;;;4.43;4.18;;;15.70;59.30;;;;;;5047615;28;20060;-28
2023/01/25 03:57:04;;;;;;;4.65;4.35;;;15.70;59.40;;;;;;5047787;28;20110;-34
2023/01/25 03:59:29;;;;;;;4.50;4.20;;;15.70;59.40;;;;;;5067366;28;20064;-29
2023/01/25 04:01:55;;;;;;;4.78;4.47;;;15.60;59.50;;;;;;5061239;28;20033;-35
2023/01/25 04:04:20;;;;;;;4.55;4.28;;;15.70;59.50;;;;;;5064399;28;20384;-46
2023/01/25 04:06:46;;;;;;;4.93;4.63;;;15.70;59.30;;;;;;5066287;28;20067;-27
2023/01/25 04:09:13;;;;;;;4.53;4.22;;;15.70;59.30;;;;;;5064310;28;20041;-32
2023/01/25 04:11:39;;;;;;;5.07;4.78;;;15.60;59.30;;;;;;5054320;28;20051;-34
2023/01/25 04:14:04;;;;;;;5.05;4.75;;;15.70;59.40;;;;;;5054391;28;20041;-47
2023/01/25 04:16:30;;;;;;;4.82;4.53;;;15.60;59.40;;;;;;5040708;28;20538;-24
2023/01/25 04:18:56;;;;;;;4.68;4.38;;;15.60;59.30;;;;;;5053074;28;20049;-30
2023/01/25 04:21:21;;;;;;;4.45;4.15;;;15.60;59.60;;;;;;5043936;28;20040;-26
2023/01/25 04:23:47;;;;;;;5.25;4.95;;;15.60;60.30;;;;;;5048621;28;20135;-37
2023/01/25 04:26:13;;;;;;;4.75;4.45;;;15.60;59.50;;;;;;5054173;28;20550;-30
2023/01/25 04:28:39;;;;;;;4.68;4.35;;;15.60;60.30;;;;;;5082671;28;20041;-35
2023/01/25 04:31:05;;;;;;;5.50;5.10;;;15.70;59.40;;;;;;5063888;28;20060;-31
2023/01/25 04:33:31;;;;;;;5.15;4.75;;;15.80;59.20;;;;;;5054316;28;20040;-25
2023/01/25 04:35:56;;;;;;;4.82;4.53;;;15.70;59.30;;;;;;5044387;28;20626;-24
2023/01/25 04:38:22;;;;;;;5.00;4.70;;;15.70;59.30;;;;;;5045944;28;20131;-36
2023/01/25 04:40:47;;;;;;;5.20;4.90;;;15.70;59.50;;;;;;5043590;28;20051;-24
2023/01/25 04:43:14;;;;;;;5.47;5.07;;;15.50;59.50;;;;;;5046957;28;20094;-18
2023/01/25 04:45:40;;;;;;;4.68;4.38;;;15.60;59.60;;;;;;5046970;28;20111;-27
2023/01/25 04:48:09;;;;;;;4.68;4.38;;;15.70;59.30;;;;;;5044529;28;20048;-40
2023/01/25 04:50:36;;;;;;;4.88;4.57;;;15.60;59.30;;;;;;5064977;28;20171;-48
2023/01/25 04:53:01;;;;;;;4.95;4.65;;;15.70;59.20;;;;;;5052293;28;20523;-25
2023/01/25 04:55:27;;;;;;;4.90;4.60;;;15.70;59.20;;;;;;5046717;28;20116;-32
2023/01/25 04:57:53;;;;;;;5.22;4.93;;;15.70;59.10;;;;;;5053582;28;20122;-26
2023/01/25 05:00:19;;;;;;;4.20;4.00;;;15.60;59.60;;;;;;5062924;28;20048;-22
2023/01/25 05:02:44;;;;;;;4.53;4.22;;;15.70;59.30;;;;;;5049102;28;20047;-34
2023/01/25 05:05:10;;;;;;;4.35;4.13;;;15.70;59.20;;;;;;5053104;28;20098;-34
2023/01/25 05:07:36;;;;;;;4.32;4.13;;;15.70;59.10;;;;;;5046230;28;20460;-42
2023/01/25 05:10:01;;;;;;;4.68;4.38;;;15.90;58.90;;;;;;5045215;28;20475;-22
2023/01/25 05:12:27;;;;;;;4.82;4.53;;;15.80;58.80;;;;;;5052886;28;20578;-20
2023/01/25 05:14:52;;;;;;;4.28;3.97;;;15.80;58.90;;;;;;5061412;28;20049;-43
2023/01/25 05:17:18;;;;;;;4.40;4.10;;;15.80;59.00;;;;;;5044555;28;20432;-41
2023/01/25 05:19:43;;;;;;;4.10;3.90;;;15.80;59.20;;;;;;5043081;28;20052;-29
2023/01/25 05:22:13;;;;;;;4.25;3.95;;;15.70;59.60;;;;;;5046850;28;20415;-26
2023/01/25 05:24:43;;;;;;;4.53;4.22;;;15.70;59.10;;;;;;5045529;28;20049;-23
2023/01/25 05:27:10;;;;;;;3.95;3.70;;;15.70;59.10;;;;;;5037939;28;20618;-27
2023/01/25 05:29:40;;;;;;;3.60;3.40;;;15.70;59.20;;;;;;5069852;28;20056;-27
2023/01/25 05:32:06;;;;;;;4.68;4.38;;;15.70;59.20;;;;;;5041295;28;20041;-42
2023/01/25 05:34:32;;;;;;;4.50;4.20;;;15.70;59.20;;;;;;5044352;28;20189;-45
2023/01/25 05:36:57;;;;;;;4.47;4.18;;;15.80;58.90;;;;;;5044609;28;20784;-28
2023/01/25 05:39:23;;;;;;;4.90;4.60;;;15.80;59.00;;;;;;5045107;28;20052;-37
2023/01/25 05:41:49;;;;;;;4.22;4.03;;;15.80;58.90;;;;;;5046682;28;20384;-30
2023/01/25 05:44:14;;;;;;;4.70;4.40;;;15.70;58.90;;;;;;5046968;28;20056;-34
2023/01/25 05:46:40;;;;;;;4.50;4.20;;;15.60;59.10;;;;;;5051700;28;20053;-30
2023/01/25 05:49:06;;;;;;;4.13;3.90;;;15.60;59.10;;;;;;5046354;28;20045;-45
2023/01/25 05:51:31;;;;;;;4.38;4.07;;;15.70;59.10;;;;;;5058040;28;20068;-37
2023/01/25 05:53:57;;;;;;;4.63;4.30;;;15.70;59.00;;;;;;5050822;28;20113;-42
2023/01/25 05:56:23;;;;;;;4.43;4.13;;;15.60;59.10;;;;;;5043877;28;20446;-43
2023/01/25 05:58:52;;;;;;;4.63;4.32;;;15.60;59.40;;;;;;5039002;28;20060;-41
2023/01/25 06:01:18;;;;;;;4.43;4.20;;;15.60;59.10;;;;;;5038333;28;20067;-43
2023/01/25 06:03:45;;;;;;;4.63;4.32;;;15.60;59.00;;;;;;5055305;28;20511;-28
2023/01/25 06:06:10;;;;;;;4.32;4.03;;;15.60;59.70;;;;;;5059027;28;20040;-36
2023/01/25 06:08:36;;;;;;;3.83;3.60;;;15.60;59.70;;;;;;5045054;28;20059;-27
2023/01/25 06:11:08;;;;;;;4.75;4.45;;;15.70;59.00;;;;;;5054173;28;20048;-33
2023/01/25 06:13:34;;;;;;;4.00;3.80;;;15.70;59.10;;;;;;5055100;28;20041;-22
2023/01/25 06:15:59;;;;;;;4.70;4.40;;;15.60;59.10;;;;;;5046627;28;20519;-27
2023/01/25 06:18:25;;;;;;;4.32;3.90;;;15.60;59.30;;;;;;5040877;28;20037;-29
2023/01/25 06:20:51;;;;;;;4.47;4.18;;;15.50;59.70;;;;;;5043354;28;20029;-44
2023/01/25 06:23:16;;;;;;;4.70;4.40;;;15.50;59.90;;;;;;5057325;28;20055;-44
2023/01/25 06:25:42;;;;;;;4.93;4.57;;;15.50;60.20;;;;;;5052616;28;20045;-30
2023/01/25 06:28:07;;;;;;;5.53;5.03;;;15.50;60.60;;;;;;5044448;28;20131;-34
2023/01/25 06:30:33;;;;;;;8.07;7.28;;;15.50;60.70;;;;;;5042126;28;20507;-38
2023/01/25 06:32:59;;;;;;;19.95;11.95;;;15.50;60.50;;;;;;5028182;28;20028;-31
2023/01/25 06:35:25;;;;;;;21.00;15.00;;;15.50;60.50;;;;;;5044704;28;20052;-28
2023/01/25 06:37:53;;;;;;;22.33;15.88;;;15.60;60.80;;;;;;5042330;28;20049;-22
2023/01/25 06:40:19;;;;;;;23.23;16.75;;;15.50;60.80;;;;;;5042084;28;20044;-40
2023/01/25 06:42:44;;;;;;;25.38;17.27;;;15.50;61.00;;;;;;5052485;28;20033;-46
2023/01/25 06:45:10;;;;;;;26.15;16.75;;;15.60;61.00;;;;;;5044216;28;20045;-22
2023/01/25 06:47:36;;;;;;;27.45;16.00;;;15.60;60.60;;;;;;5041714;28;20611;-31
2023/01/25 06:50:01;;;;;;;24.23;17.67;;;15.70;60.50;;;;;;5044581;28;20124;-33
2023/01/25 06:52:27;;;;;;;25.30;17.30;;;15.70;60.50;;;;;;5053422;28;20106;-28
2023/01/25 06:54:52;;;;;;;23.85;16.92;;;15.90;60.00;;;;;;5052358;28;20616;-18
2023/01/25 06:57:18;;;;;;;23.58;15.90;;;15.80;60.10;;;;;;5050876;28;20124;-30
2023/01/25 06:59:44;;;;;;;22.42;14.95;;;15.80;59.90;;;;;;5046559;28;20056;-42
2023/01/25 07:02:13;;;;;;;22.08;16.45;;;15.80;60.00;;;;;;5069542;28;20036;-20
2023/01/25 07:04:39;;;;;;;20.45;14.60;;;15.90;59.70;;;;;;5048131;28;20478;-19
2023/01/25 07:07:07;;;;;;;21.83;14.77;;;15.90;59.70;;;;;;5048822;28;20104;-21
2023/01/25 07:09:33;;;;;;;21.25;15.25;;;15.80;59.70;;;;;;5066391;28;20044;-22
2023/01/25 07:12:00;;;;;;;19.58;14.60;;;15.70;60.30;;;;;;5072453;28;20041;-25
2023/01/25 07:14:26;;;;;;;20.00;14.43;;;15.60;61.00;;;;;;5049989;28;20053;-17
2023/01/25 07:16:52;;;;;;;19.77;14.82;;;15.50;60.50;;;;;;5067204;28;20048;-30
2023/01/25 07:19:17;;;;;;;17.90;12.93;;;15.50;60.60;;;;;;5048987;28;20136;-28
2023/01/25 07:21:43;;;;;;;17.38;13.48;;;15.50;60.80;;;;;;5048097;28;20048;-17
2023/01/25 07:24:16;;;;;;;18.40;13.70;;;15.50;60.70;;;;;;5051324;28;20098;-17
2023/01/25 07:26:41;;;;;;;18.98;14.77;;;15.50;60.50;;;;;;5079030;28;20112;-23
2023/01/25 07:29:08;;;;;;;18.02;13.35;;;15.60;60.50;;;;;;5050534;28;20483;-21
2023/01/25 07:31:34;;;;;;;18.48;13.23;;;15.50;60.30;;;;;;5049919;28;20514;-33
2023/01/25 07:34:00;;;;;;;17.20;12.98;;;15.50;60.50;;;;;;5060701;28;20040;-21
2023/01/25 07:36:25;;;;;;;17.52;13.35;;;15.60;60.40;;;;;;5051644;28;20029;-48
2023/01/25 07:38:54;;;;;;;17.45;12.95;;;15.60;60.40;;;;;;5049862;28;21743;-19
2023/01/25 07:41:20;;;;;;;17.50;13.98;;;15.60;60.30;;;;;;5063317;28;20107;-37
2023/01/25 07:43:46;;;;;;;17.33;12.02;;;15.50;60.40;;;;;;5050463;28;20116;-30
2023/01/25 07:46:12;;;;;;;18.08;12.88;;;15.50;60.60;;;;;;5060247;28;20043;-19
2023/01/25 07:48:39;;;;;;;17.73;12.85;;;15.50;60.50;;;;;;5067290;28;20045;-21
2023/01/25 07:51:21;;;;;;;16.52;12.38;;;15.60;60.40;;;;;;5051156;28;20127;-20
2023/01/25 07:53:47;;;;;;;16.38;12.40;;;15.70;61.20;;;;;;5054849;28;20044;-21
2023/01/25 07:56:12;;;;;;;17.83;13.00;;;15.60;60.20;;;;;;5046546;28;20041;-24
2023/01/25 07:58:38;;;;;;;16.35;12.73;;;15.60;60.40;;;;;;5044704;28;20025;-21
2023/01/25 08:01:08;;;;;;;16.02;12.85;;;15.70;60.20;;;;;;5042937;28;20065;-31
2023/01/25 08:03:34;;;;;;;16.92;13.10;;;15.80;59.90;;;;;;5044274;28;20122;-19
2023/01/25 08:05:59;;;;;;;16.00;12.73;;;15.90;59.40;;;;;;5043532;28;20061;-20
2023/01/25 08:08:25;;;;;;;15.73;13.05;;;15.80;59.80;;;;;;5052828;28;20559;-26
2023/01/25 08:10:51;;;;;;;15.95;12.75;;;15.90;61.00;;;;;;5046052;28;20388;-30
2023/01/25 08:13:16;;;;;;;15.52;11.88;;;15.80;61.60;;;;;;5045372;28;20059;-23
2023/01/25 08:15:42;;;;;;;13.05;10.75;;;15.80;61.40;;;;;;5063008;28;20044;-24
2023/01/25 08:18:07;;;;;;;11.50;10.30;;;15.80;61.60;;;;;;5053865;28;20025;-19
2023/01/25 08:20:33;;;;;;;12.65;10.98;;;15.80;62.00;;;;;;5043762;28;20052;-27
2023/01/25 08:22:58;;;;;;;18.30;11.85;;;15.80;61.80;;;;;;5044955;28;20065;-17
2023/01/25 08:25:24;;;;;;;15.95;11.77;;;15.70;61.30;;;;;;5043825;28;20573;-17
2023/01/25 08:27:51;;;;;;;12.88;11.02;;;15.70;61.10;;;;;;5054270;28;20037;-22
2023/01/25 08:30:16;;;;;;;11.48;10.25;;;15.70;61.70;;;;;;5054888;28;20044;-19
2023/01/25 08:32:42;;;;;;;14.35;10.88;;;15.70;60.70;;;;;;5057535;28;20052;-22
2023/01/25 08:35:08;;;;;;;15.65;10.77;;;15.80;60.70;;;;;;5050603;28;20036;-22
2023/01/25 08:37:33;;;;;;;15.48;11.50;;;15.80;60.60;;;;;;5045866;28;20083;-18
2023/01/25 08:39:59;;;;;;;13.90;9.98;;;15.80;61.50;;;;;;5047613;28;20045;-17
2023/01/25 08:42:25;;;;;;;11.98;10.40;;;15.90;61.10;;;;;;5067545;28;20044;-21
2023/01/25 08:44:50;;;;;;;16.33;11.40;;;15.90;61.10;;;;;;5051858;28;20037;-24
2023/01/25 08:47:16;;;;;;;14.00;10.48;;;15.90;61.50;;;;;;5046596;28;20122;-26
2023/01/25 08:49:41;;;;;;;12.38;10.25;;;15.80;60.80;;;;;;5063669;28;20047;-18
2023/01/25 08:52:07;;;;;;;11.13;9.40;;;15.80;60.90;;;;;;5044990;28;20037;-18
2023/01/25 08:54:32;;;;;;;11.13;9.90;;;15.80;61.80;;;;;;5045833;28;21386;-22
2023/01/25 08:56:59;;;;;;;13.82;10.48;;;15.90;61.70;;;;;;5052056;28;20041;-22
2023/01/25 08:59:25;;;;;;;11.00;9.52;;;15.80;62.40;;;;;;5047264;28;20041;-18
2023/01/25 09:01:50;;;;;;;9.95;8.43;;;15.80;62.10;;;;;;5054290;28;20094;-26
2023/01/25 09:04:16;;;;;;;12.63;9.13;;;15.80;62.40;;;;;;5045063;28;20132;-19
2023/01/25 09:06:42;;;;;;;9.25;8.35;;;15.70;62.80;;;;;;5040335;28;20414;-23
2023/01/25 09:09:07;;;;;;;13.43;9.35;;;15.70;63.40;;;;;;5053267;28;20033;-20
2023/01/25 09:11:33;;;;;;;10.57;8.68;;;15.60;63.40;;;;;;5064071;28;20032;-17
2023/01/25 09:13:59;;;;;;;9.90;8.90;;;15.70;63.90;;;;;;5067367;28;20039;-18
2023/01/25 09:16:28;;;;;;;10.98;9.48;;;15.80;63.00;;;;;;5059154;28;20454;-18
2023/01/25 09:18:54;;;;;;;9.32;8.30;;;15.80;61.90;;;;;;5046487;28;20037;-22
2023/01/25 09:21:20;;;;;;;9.82;8.30;;;15.80;62.60;;;;;;5045748;28;20094;-18
2023/01/25 09:23:49;;;;;;;12.38;8.82;;;15.70;62.90;;;;;;5046666;28;20025;-18
2023/01/25 09:26:15;;;;;;;9.98;9.02;;;15.70;63.20;;;;;;5046216;28;20128;-18
2023/01/25 09:28:41;;;;;;;9.40;8.43;;;15.70;63.50;;;;;;5040504;28;20131;-21
2023/01/25 09:31:07;;;;;;;11.70;8.85;;;15.80;62.80;;;;;;5052825;28;20457;-20
2023/01/25 09:33:36;;;;;;;8.35;7.55;;;15.90;61.60;;;;;;5048221;28;20664;-16
2023/01/25 09:36:02;;;;;;;8.23;7.45;;;15.80;63.40;;;;;;5047439;28;20179;-17
2023/01/25 09:38:27;;;;;;;9.27;8.48;;;15.70;64.20;;;;;;5046489;28;20112;-17
2023/01/25 09:41:30;;;;;;;9.07;8.15;;;15.70;63.70;;;;;;5055579;28;20041;-18
2023/01/25 09:44:14;;;;;;;9.00;7.63;;;15.70;63.00;;;;;;5054402;28;20047;-18
2023/01/25 09:46:57;;;;;;;8.48;7.68;;;15.70;63.30;;;;;;5056554;28;20040;-27
2023/01/25 09:49:47;;;;;;;8.35;7.55;;;15.70;63.10;;;;;;5058763;28;20522;-21
2023/01/25 09:52:19;;;;;;;8.75;7.85;;;15.70;63.20;;;;;;5066563;28;20122;-18
2023/01/25 09:54:45;;;;;;;8.52;7.72;;;15.60;63.80;;;;;;5046161;28;20052;-17
2023/01/25 09:57:25;;;;;;;8.82;8.00;;;15.70;63.20;;;;;;5044317;28;20067;-20
2023/01/25 09:59:51;;;;;;;8.38;7.57;;;15.80;62.90;;;;;;5054643;28;20045;-21
2023/01/25 10:02:29;;;;;;;9.07;8.10;;;15.70;63.50;;;;;;5050939;28;20047;-29
2023/01/25 10:04:56;;;;;;;8.30;7.47;;;15.60;63.10;;;;;;5048173;28;20056;-22
2023/01/25 10:07:26;;;;;;;8.25;7.22;;;15.70;63.40;;;;;;5057710;28;20041;-17
2023/01/25 10:10:05;;;;;;;7.95;7.25;;;15.70;62.90;;;;;;5056622;28;20041;-17
2023/01/25 10:12:34;;;;;;;8.70;7.93;;;15.70;63.10;;;;;;5049120;28;20055;-18
2023/01/25 10:14:59;;;;;;;8.23;7.38;;;15.70;63.00;;;;;;5045222;28;20071;-18
2023/01/25 10:17:36;;;;;;;7.97;7.18;;;15.60;63.60;;;;;;5046933;28;20499;-22
2023/01/25 10:20:27;;;;;;;8.27;7.57;;;15.60;63.20;;;;;;5041379;28;20045;-18
2023/01/25 10:23:16;;;;;;;7.80;7.10;;;15.60;63.60;;;;;;5045461;28;20048;-24
2023/01/25 10:25:45;;;;;;;7.75;6.95;;;15.60;63.30;;;;;;5048194;28;20047;-18
2023/01/25 10:28:38;;;;;;;7.90;7.10;;;15.50;63.80;;;;;;5045258;28;20037;-21
2023/01/25 10:31:16;;;;;;;8.40;7.57;;;15.60;63.00;;;;;;5054373;28;20502;-17
2023/01/25 10:33:43;;;;;;;7.97;7.18;;;15.60;63.40;;;;;;5056932;28;20105;-17
2023/01/25 10:36:11;;;;;;;7.57;6.97;;;15.50;63.40;;;;;;5056953;28;20060;-23
2023/01/25 10:38:43;;;;;;;8.15;7.45;;;15.50;63.30;;;;;;5044846;28;20562;-17
2023/01/25 10:41:13;;;;;;;7.82;7.13;;;15.60;62.90;;;;;;5046980;28;20438;-17
2023/01/25 10:43:38;;;;;;;8.48;7.68;;;15.60;62.60;;;;;;5042866;28;20068;-16
2023/01/25 10:46:16;;;;;;;7.80;7.10;;;15.50;63.90;;;;;;5045529;28;20580;-21
2023/01/25 10:48:41;;;;;;;7.03;6.38;;;15.50;63.10;;;;;;5027859;28;20049;-18
2023/01/25 10:51:07;;;;;;;7.15;6.57;;;15.50;62.80;;;;;;5046481;28;20037;-21
2023/01/25 10:53:39;;;;;;;7.82;7.03;;;15.50;63.30;;;;;;5051076;28;20047;-18
2023/01/25 10:56:23;;;;;;;7.72;7.03;;;15.40;63.30;;;;;;5050162;28;20126;-18
2023/01/25 10:58:50;;;;;;;7.25;6.60;;;15.50;63.30;;;;;;5053281;28;20101;-17
2023/01/25 11:01:27;;;;;;;7.05;6.55;;;15.50;63.20;;;;;;5058269;28;20037;-18
2023/01/25 11:03:53;;;;;;;7.25;6.53;;;15.60;62.00;;;;;;5062643;28;20051;-22
2023/01/25 11:06:36;;;;;;;7.50;6.80;;;15.80;61.60;;;;;;5060050;28;20048;-23
2023/01/25 11:09:20;;;;;;;7.20;6.60;;;15.60;63.80;;;;;;5054753;28;20063;-21
2023/01/25 11:11:53;;;;;;;7.18;6.57;;;15.50;62.90;;;;;;5062927;28;20546;-21
2023/01/25 11:14:19;;;;;;;7.27;6.67;;;15.40;63.40;;;;;;5058957;28;20056;-17
2023/01/25 11:16:46;;;;;;;8.15;7.35;;;15.40;63.60;;;;;;5050817;28;20439;-17
2023/01/25 11:19:39;;;;;;;7.65;6.97;;;15.40;63.20;;;;;;5048501;28;20087;-21
2023/01/25 11:22:23;;;;;;;7.45;6.85;;;15.50;63.10;;;;;;5042424;28;20136;-17
2023/01/25 11:24:49;;;;;;;6.90;6.30;;;15.50;62.90;;;;;;5026392;28;20041;-23
2023/01/25 11:27:20;;;;;;;7.15;6.55;;;15.40;63.10;;;;;;5046141;28;20530;-19
2023/01/25 11:30:04;;;;;;;7.68;7.00;;;15.40;63.20;;;;;;5049190;28;20049;-18
2023/01/25 11:32:30;;;;;;;6.47;5.88;;;15.50;62.70;;;;;;5041877;28;20049;-18
2023/01/25 11:34:56;;;;;;;14.63;6.75;;;15.60;63.20;;;;;;5036101;28;20117;-18
2023/01/25 11:37:21;;;;;;;10.07;6.97;;;15.70;62.70;;;;;;4698201;28;10000140;-26
2023/01/25 11:40:16;;;;;;;12.18;9.07;;;15.70;63.10;;;;;;5042438;28;20184;-17
2023/01/25 11:42:57;;;;;;;21.08;12.18;;;15.70;63.80;;;;;;5041616;28;20182;-17
2023/01/25 11:45:41;;;;;;;40.50;21.13;;;15.70;63.90;;;;;;5060190;28;20049;-18
2023/01/25 11:48:28;;;;;;;40.63;24.65;;;15.80;63.20;;;;;;5056837;28;20098;-21
2023/01/25 11:51:10;;;;;;;39.90;23.70;;;16.00;62.80;;;;;;5062095;28;20045;-18
2023/01/25 11:53:57;;;;;;;40.30;24.58;;;15.90;62.60;;;;;;5047003;28;20040;-18
2023/01/25 11:56:43;;;;;;;40.58;23.65;;;15.80;63.10;;;;;;5057857;28;20051;-17
2023/01/25 11:59:12;;;;;;;43.83;24.85;;;15.70;63.60;;;;;;4689299;28;9999749;-17
2023/01/25 12:02:07;;;;;;;40.38;24.98;;;15.70;63.80;;;;;;5062821;28;20055;-13
2023/01/25 12:04:57;;;;;;;40.22;24.95;;;15.60;63.80;;;;;;5051599;28;20045;-18
2023/01/25 12:07:39;;;;;;;38.42;24.02;;;15.70;63.80;;;;;;5046130;28;20055;-18
2023/01/25 12:10:43;;;;;;;39.88;25.33;;;15.70;63.90;;;;;;5023256;28;20163;-17
2023/01/25 12:13:29;;;;;;;40.40;22.83;;;15.70;64.00;;;;;;5036333;28;20531;-18
2023/01/25 12:16:17;;;;;;;36.75;23.33;;;15.70;64.00;;;;;;5032545;28;20060;-17
2023/01/25 12:18:46;;;;;;;36.85;23.33;;;15.70;63.80;;;;;;5033538;28;20049;-27
2023/01/25 12:21:29;;;;;;;35.10;21.33;;;15.90;63.50;;;;;;5036143;28;20042;-18
2023/01/25 12:24:04;;;;;;;38.38;22.13;;;15.90;63.40;;;;;;5035708;28;20519;-18
2023/01/25 12:26:36;;;;;;;41.88;24.02;;;15.90;63.40;;;;;;5055296;28;20554;-17
2023/01/25 12:29:20;;;;;;;34.50;21.83;;;15.90;63.80;;;;;;5037411;28;20085;-17
2023/01/25 12:32:00;;;;;;;34.08;21.70;;;15.90;63.20;;;;;;5051780;28;20052;-17
2023/01/25 12:34:34;;;;;;;32.15;21.42;;;15.80;63.60;;;;;;5042141;28;20071;-17
2023/01/25 12:37:05;;;;;;;34.63;20.60;;;15.90;63.30;;;;;;5042663;28;20124;-18
2023/01/25 12:39:39;;;;;;;30.98;17.95;;;15.90;63.60;;;;;;5052176;28;20107;-21
2023/01/25 12:42:23;;;;;;;30.63;18.60;;;15.90;63.40;;;;;;5059852;28;20110;-18
2023/01/25 12:45:03;;;;;;;47.17;19.48;;;16.00;62.80;;;;;;5042738;28;20507;-18
2023/01/25 12:47:40;;;;;;;26.13;18.00;;;16.10;63.00;;;;;;5050176;28;20057;-18
2023/01/25 12:50:28;;;;;;;27.83;18.13;;;15.90;62.90;;;;;;5052207;28;20033;-23
2023/01/25 12:53:00;;;;;;;29.70;18.45;;;15.80;63.30;;;;;;5028464;28;20440;-18